Time;durP1;ratioP1;P1;durP2;ratioP2;P2;SDS_P1;SDS_P2;PMS_P1;PMS_P2;Temp;Humidity;BMP_temperature;BMP_pressure;BME280_temperature;BME280_humidity;BME280_pressure;Samples;Min_cycle;Max_cycle;Signal;HPM_P1;HPM_P2
2020/12/29 00:01:59;;;;;;;18.27;14.10;;;2.80;99.90;;;;;;5069177;28;20224;-59
2020/12/29 00:04:28;;;;;;;22.57;16.13;;;2.90;99.90;;;;;;5066332;28;20204;-58
2020/12/29 00:06:55;;;;;;;19.30;14.50;;;2.90;99.90;;;;;;5053468;28;20180;-60
2020/12/29 00:09:26;;;;;;;22.03;16.10;;;2.90;99.90;;;;;;5059225;28;20182;-61
2020/12/29 00:11:53;;;;;;;23.87;14.70;;;2.90;99.90;;;;;;5055690;28;20197;-62
2020/12/29 00:14:22;;;;;;;20.80;14.87;;;2.90;99.90;;;;;;5063044;28;20205;-62
2020/12/29 00:16:48;;;;;;;21.03;14.73;;;2.90;99.90;;;;;;5065321;28;20185;-62
2020/12/29 00:19:16;;;;;;;20.63;14.83;;;2.90;99.90;;;;;;5067258;28;20264;-61
2020/12/29 00:21:42;;;;;;;23.10;14.10;;;2.90;99.90;;;;;;5057708;28;20210;-67
2020/12/29 00:24:08;;;;;;;27.53;22.27;;;2.90;99.90;;;;;;5063104;28;20418;-61
2020/12/29 00:26:34;;;;;;;25.37;18.53;;;2.90;99.90;;;;;;5064077;28;20559;-61
2020/12/29 00:29:00;;;;;;;25.33;18.00;;;2.80;99.90;;;;;;5065319;28;20264;-61
2020/12/29 00:31:26;;;;;;;23.07;14.40;;;2.80;99.90;;;;;;5065188;28;20178;-60
2020/12/29 00:33:57;;;;;;;24.67;17.03;;;2.80;99.90;;;;;;5062237;28;20219;-60
2020/12/29 00:36:25;;;;;;;25.43;17.37;;;2.90;99.90;;;;;;5059503;28;20657;-61
2020/12/29 00:38:51;;;;;;;24.33;18.03;;;2.90;99.90;;;;;;5058290;28;20271;-61
2020/12/29 00:41:17;;;;;;;25.93;19.10;;;2.90;99.90;;;;;;5066526;28;20688;-61
2020/12/29 00:43:44;;;;;;;27.27;18.73;;;2.90;99.90;;;;;;5059289;28;20621;-61
2020/12/29 00:46:11;;;;;;;28.50;18.07;;;2.90;99.90;;;;;;5065393;28;20182;-60
2020/12/29 00:48:37;;;;;;;27.43;19.97;;;2.90;99.90;;;;;;5060685;28;20200;-59
2020/12/29 00:51:08;;;;;;;25.57;18.43;;;3.00;99.90;;;;;;5058216;28;20208;-61
2020/12/29 00:53:35;;;;;;;26.80;18.53;;;3.00;99.90;;;;;;5068664;28;20213;-61
2020/12/29 00:56:02;;;;;;;26.07;18.53;;;3.00;99.90;;;;;;5067808;28;20177;-60
2020/12/29 00:58:28;;;;;;;25.87;19.00;;;3.00;99.90;;;;;;5059898;28;20653;-60
2020/12/29 01:00:55;;;;;;;28.40;18.73;;;3.10;99.90;;;;;;5065311;28;20296;-61
2020/12/29 01:03:20;;;;;;;27.07;19.00;;;3.10;99.90;;;;;;5056957;28;20205;-60
2020/12/29 01:05:46;;;;;;;29.53;20.23;;;3.10;99.90;;;;;;5061360;28;20645;-60
2020/12/29 01:08:12;;;;;;;26.80;19.50;;;3.10;99.90;;;;;;5065273;28;20259;-61
2020/12/29 01:10:38;;;;;;;29.63;19.27;;;3.10;99.90;;;;;;5065043;28;20178;-60
2020/12/29 01:13:04;;;;;;;29.20;19.07;;;3.20;99.90;;;;;;5062515;28;20201;-60
2020/12/29 01:15:30;;;;;;;31.13;20.87;;;3.10;99.90;;;;;;5061043;28;20680;-62
2020/12/29 01:17:55;;;;;;;28.80;20.63;;;3.10;99.90;;;;;;5068748;28;20188;-61
2020/12/29 01:20:25;;;;;;;29.20;20.53;;;3.10;99.90;;;;;;5062800;28;20201;-61
2020/12/29 01:22:51;;;;;;;28.70;19.10;;;3.10;99.90;;;;;;5062884;28;20181;-61
2020/12/29 01:25:16;;;;;;;28.83;19.97;;;3.10;99.90;;;;;;5059458;28;20552;-61
2020/12/29 01:27:42;;;;;;;31.20;20.10;;;3.10;99.90;;;;;;5066571;28;20193;-61
2020/12/29 01:30:07;;;;;;;31.80;21.13;;;3.10;99.90;;;;;;5063714;28;20234;-61
2020/12/29 01:32:36;;;;;;;32.00;21.27;;;3.10;99.90;;;;;;5054927;28;20185;-60
2020/12/29 01:35:02;;;;;;;29.53;20.83;;;3.10;99.90;;;;;;5063812;28;20204;-61
2020/12/29 01:37:27;;;;;;;29.30;20.13;;;3.10;99.90;;;;;;5058619;28;20351;-60
2020/12/29 01:39:54;;;;;;;26.77;20.03;;;3.00;99.90;;;;;;5062050;28;20282;-60
2020/12/29 01:42:19;;;;;;;32.77;22.50;;;3.00;99.90;;;;;;5063548;28;20189;-60
2020/12/29 01:44:45;;;;;;;27.90;19.63;;;3.00;99.90;;;;;;5058820;28;20669;-60
2020/12/29 01:47:10;;;;;;;25.37;16.80;;;3.00;99.90;;;;;;5064261;28;20227;-60
2020/12/29 01:49:36;;;;;;;25.33;16.03;;;3.00;99.90;;;;;;5055534;28;20192;-60
2020/12/29 01:52:02;;;;;;;17.07;12.13;;;2.90;99.90;;;;;;5059754;28;20197;-60
2020/12/29 01:54:27;;;;;;;27.47;17.87;;;2.90;99.90;;;;;;5061433;28;20226;-60
2020/12/29 01:56:53;;;;;;;27.90;19.03;;;2.80;99.90;;;;;;5055720;28;20239;-61
2020/12/29 01:59:18;;;;;;;24.43;17.83;;;2.80;99.90;;;;;;5061990;28;20213;-61
2020/12/29 02:01:44;;;;;;;29.17;19.53;;;2.80;99.90;;;;;;5063362;28;20227;-61
2020/12/29 02:04:13;;;;;;;26.50;16.93;;;2.80;99.90;;;;;;5059177;28;20190;-63
2020/12/29 02:06:39;;;;;;;30.07;19.70;;;2.80;99.90;;;;;;5066846;28;20665;-61
2020/12/29 02:09:06;;;;;;;27.27;17.97;;;2.80;99.90;;;;;;5065867;28;20185;-61
2020/12/29 02:11:33;;;;;;;25.90;17.20;;;2.80;99.90;;;;;;5069108;28;20215;-61
2020/12/29 02:14:00;;;;;;;26.57;19.03;;;2.80;99.90;;;;;;5059676;28;20213;-61
2020/12/29 02:16:25;;;;;;;22.67;15.33;;;2.90;99.90;;;;;;5069805;28;20279;-62
2020/12/29 02:18:51;;;;;;;27.37;17.97;;;2.90;99.90;;;;;;5060149;28;20200;-61
2020/12/29 02:21:16;;;;;;;25.87;17.20;;;2.80;99.90;;;;;;5065696;28;20232;-62
2020/12/29 02:23:43;;;;;;;24.37;17.10;;;2.80;99.90;;;;;;5064618;28;20198;-61
2020/12/29 02:26:08;;;;;;;26.03;16.77;;;2.80;99.90;;;;;;5065773;28;20185;-61
2020/12/29 02:28:34;;;;;;;17.70;12.07;;;2.80;99.90;;;;;;5068348;28;20185;-61
2020/12/29 02:30:59;;;;;;;22.37;16.40;;;2.80;99.90;;;;;;5061302;28;20184;-61
2020/12/29 02:33:25;;;;;;;26.07;18.23;;;2.70;99.90;;;;;;5061779;28;20208;-61
2020/12/29 02:35:51;;;;;;;16.67;10.93;;;2.70;99.90;;;;;;5067780;28;20628;-61
2020/12/29 02:38:24;;;;;;;26.03;17.30;;;2.70;99.90;;;;;;5068495;28;20238;-61
2020/12/29 02:40:50;;;;;;;23.70;17.13;;;2.70;99.90;;;;;;5070161;28;20266;-62
2020/12/29 02:43:16;;;;;;;26.07;18.37;;;2.70;99.90;;;;;;5058602;28;20279;-61
2020/12/29 02:45:42;;;;;;;26.93;18.30;;;2.70;99.90;;;;;;5070211;28;20181;-61
2020/12/29 02:48:08;;;;;;;24.67;17.17;;;2.60;99.90;;;;;;5069276;28;20178;-60
2020/12/29 02:50:34;;;;;;;27.53;18.33;;;2.60;99.90;;;;;;5065968;28;20246;-61
2020/12/29 02:53:00;;;;;;;23.03;17.47;;;2.60;99.90;;;;;;5066755;28;20189;-61
2020/12/29 02:55:26;;;;;;;25.63;18.10;;;2.50;99.90;;;;;;5060762;28;20268;-60
2020/12/29 02:57:52;;;;;;;23.07;15.10;;;2.50;99.90;;;;;;5061038;28;20264;-60
2020/12/29 03:00:18;;;;;;;24.80;15.97;;;2.40;99.90;;;;;;5064278;28;20297;-61
2020/12/29 03:02:43;;;;;;;26.27;16.63;;;2.30;99.90;;;;;;5068468;28;20555;-61
2020/12/29 03:18:37;;;;;;;15.20;9.83;;;2.20;99.90;;;;;;5059143;28;20184;-60
2020/12/29 03:21:02;;;;;;;29.33;19.33;;;2.10;99.90;;;;;;5065470;28;20201;-60
2020/12/29 03:23:28;;;;;;;26.87;15.33;;;2.10;99.90;;;;;;5070119;28;20625;-60
2020/12/29 03:25:53;;;;;;;28.13;19.77;;;2.00;99.90;;;;;;5061267;28;20186;-60
2020/12/29 03:28:18;;;;;;;29.80;20.67;;;2.00;99.90;;;;;;5066603;28;20188;-60
2020/12/29 03:30:44;;;;;;;27.80;18.73;;;2.00;99.90;;;;;;5059282;28;20571;-60
2020/12/29 03:33:09;;;;;;;33.33;20.77;;;2.00;99.90;;;;;;5067327;28;20231;-60
2020/12/29 03:35:35;;;;;;;26.93;18.57;;;2.00;99.90;;;;;;5061140;28;20262;-60
2020/12/29 03:38:01;;;;;;;26.80;17.07;;;2.00;99.90;;;;;;5057852;28;20181;-60
2020/12/29 03:40:26;;;;;;;30.33;20.17;;;2.00;99.90;;;;;;5062269;28;20657;-60
2020/12/29 03:42:51;;;;;;;30.23;19.20;;;2.00;99.90;;;;;;5065659;28;20275;-59
2020/12/29 03:45:17;;;;;;;32.60;21.07;;;2.00;99.90;;;;;;5057756;28;20177;-60
2020/12/29 03:47:42;;;;;;;29.57;20.50;;;2.00;99.90;;;;;;5063777;28;20327;-60
2020/12/29 03:50:08;;;;;;;29.47;19.20;;;2.00;99.90;;;;;;5063445;28;20174;-59
2020/12/29 03:52:33;;;;;;;30.43;17.30;;;2.00;99.90;;;;;;5065395;28;20748;-58
2020/12/29 03:54:59;;;;;;;29.20;18.07;;;2.00;99.90;;;;;;5058399;28;20217;-59
2020/12/29 03:57:24;;;;;;;30.23;19.83;;;2.00;99.90;;;;;;5059254;28;20213;-59
2020/12/29 03:59:50;;;;;;;28.53;16.87;;;2.00;99.90;;;;;;5063368;28;20177;-59
2020/12/29 04:02:15;;;;;;;26.07;16.50;;;2.00;99.90;;;;;;5064351;28;20578;-59
2020/12/29 04:04:41;;;;;;;26.87;17.40;;;2.00;99.90;;;;;;5062125;28;20251;-59
2020/12/29 04:07:06;;;;;;;28.70;18.33;;;2.00;99.90;;;;;;5063401;28;20181;-59
2020/12/29 04:09:33;;;;;;;33.17;22.10;;;1.90;99.90;;;;;;5060510;28;20188;-59
2020/12/29 04:11:59;;;;;;;27.57;15.43;;;1.90;99.90;;;;;;5068642;28;20189;-59
2020/12/29 04:14:25;;;;;;;35.80;21.70;;;1.90;99.90;;;;;;5059372;28;20202;-59
2020/12/29 04:16:50;;;;;;;26.17;17.57;;;2.00;99.90;;;;;;5068902;28;20688;-61
2020/12/29 04:19:16;;;;;;;32.03;19.50;;;2.00;99.90;;;;;;5056927;28;20185;-59
2020/12/29 04:21:41;;;;;;;38.73;23.33;;;1.90;99.90;;;;;;5064079;28;20211;-59
2020/12/29 04:24:07;;;;;;;30.43;20.23;;;2.00;99.90;;;;;;5057234;28;20739;-58
2020/12/29 04:26:35;;;;;;;34.80;21.90;;;1.90;99.90;;;;;;5066008;28;20188;-60
2020/12/29 04:29:01;;;;;;;33.90;21.97;;;2.00;99.90;;;;;;5054130;28;20650;-59
2020/12/29 04:31:26;;;;;;;30.13;17.73;;;2.00;99.90;;;;;;5062067;28;20180;-59
2020/12/29 04:33:52;;;;;;;33.40;20.80;;;2.00;99.90;;;;;;5065130;28;20200;-59
2020/12/29 04:36:17;;;;;;;21.37;13.80;;;2.00;99.90;;;;;;5063360;28;20181;-59
2020/12/29 04:38:43;;;;;;;38.20;23.33;;;2.00;99.90;;;;;;5059777;28;20343;-59
2020/12/29 04:41:08;;;;;;;35.77;22.70;;;2.00;99.90;;;;;;5064670;28;20197;-60
2020/12/29 04:43:34;;;;;;;38.50;25.07;;;2.10;99.90;;;;;;5069346;28;20367;-59
2020/12/29 04:46:01;;;;;;;36.57;25.77;;;2.10;99.90;;;;;;5061191;28;20664;-59
2020/12/29 04:48:28;;;;;;;27.80;19.03;;;2.10;99.90;;;;;;5064496;28;20261;-61
2020/12/29 04:51:02;;;;;;;30.47;19.30;;;2.10;99.90;;;;;;5065040;28;20260;-60
2020/12/29 04:53:30;;;;;;;21.33;13.57;;;2.10;99.90;;;;;;5060054;28;20684;-60
2020/12/29 04:56:02;;;;;;;35.37;23.60;;;2.10;99.90;;;;;;5063985;28;20662;-59
2020/12/29 04:58:29;;;;;;;21.27;13.80;;;2.10;99.90;;;;;;5056387;28;20173;-60
2020/12/29 05:00:57;;;;;;;28.63;17.03;;;2.20;99.90;;;;;;5067557;28;20212;-61
2020/12/29 05:03:26;;;;;;;37.67;22.60;;;2.20;99.90;;;;;;5066523;28;20693;-61
2020/12/29 05:05:53;;;;;;;29.97;18.63;;;2.20;99.90;;;;;;5055955;28;20181;-61
2020/12/29 05:08:18;;;;;;;24.67;15.40;;;2.20;99.90;;;;;;5060621;28;20181;-61
2020/12/29 05:10:47;;;;;;;32.60;22.20;;;2.20;99.90;;;;;;5062182;28;20274;-61
2020/12/29 05:13:12;;;;;;;34.00;21.57;;;2.20;99.90;;;;;;5060456;28;20223;-61
2020/12/29 05:15:38;;;;;;;33.57;19.80;;;2.10;99.90;;;;;;5068883;28;20173;-61
2020/12/29 05:18:03;;;;;;;20.23;14.33;;;2.10;99.90;;;;;;5064449;28;20177;-60
2020/12/29 05:20:33;;;;;;;33.97;20.80;;;2.20;99.90;;;;;;5063370;28;20197;-61
2020/12/29 05:23:00;;;;;;;31.23;20.33;;;2.20;99.90;;;;;;5054231;28;20202;-60
2020/12/29 05:25:25;;;;;;;33.60;19.67;;;2.10;99.90;;;;;;5061645;28;20557;-62
2020/12/29 05:27:51;;;;;;;31.80;21.27;;;2.10;99.90;;;;;;5057858;28;20188;-60
2020/12/29 05:30:17;;;;;;;33.10;19.33;;;2.00;99.90;;;;;;5067889;28;20216;-62
2020/12/29 05:32:43;;;;;;;35.83;23.00;;;2.10;99.90;;;;;;5066522;28;20188;-61
2020/12/29 05:35:13;;;;;;;33.03;23.00;;;2.10;99.90;;;;;;5062221;28;20189;-60
2020/12/29 05:37:41;;;;;;;32.43;20.07;;;2.20;99.90;;;;;;5064222;28;20255;-60
2020/12/29 05:40:23;;;;;;;35.47;22.13;;;2.20;99.90;;;;;;5058149;28;20204;-61
2020/12/29 05:42:52;;;;;;;33.93;22.47;;;2.20;99.90;;;;;;5057511;28;20177;-60
2020/12/29 05:45:18;;;;;;;25.53;16.00;;;2.20;99.90;;;;;;5062856;28;20539;-60
2020/12/29 05:47:51;;;;;;;31.53;21.33;;;2.20;99.90;;;;;;5061729;28;20204;-60
2020/12/29 05:50:19;;;;;;;35.77;22.53;;;2.20;99.90;;;;;;5057206;28;20184;-60
2020/12/29 05:52:50;;;;;;;32.07;22.30;;;2.20;99.90;;;;;;5058408;28;20192;-60
2020/12/29 05:55:16;;;;;;;32.17;22.30;;;2.20;99.90;;;;;;5086053;22;20311;-57
2020/12/29 05:57:41;;;;;;;32.10;20.87;;;2.20;99.90;;;;;;5061330;28;20276;-59
2020/12/29 06:00:07;;;;;;;34.77;22.57;;;2.20;99.90;;;;;;5068112;28;20199;-59
2020/12/29 06:02:32;;;;;;;35.37;22.77;;;2.20;99.90;;;;;;5063388;28;20193;-59
2020/12/29 06:05:00;;;;;;;32.00;21.20;;;2.20;99.90;;;;;;5051245;28;20218;-59
2020/12/29 06:07:26;;;;;;;33.70;24.10;;;2.20;99.90;;;;;;5037798;28;20186;-58
2020/12/29 06:09:54;;;;;;;37.57;23.70;;;2.20;99.90;;;;;;5047974;28;20685;-58
2020/12/29 06:12:31;;;;;;;34.77;23.50;;;2.20;99.90;;;;;;5045856;28;20193;-59
2020/12/29 06:14:58;;;;;;;36.50;23.23;;;2.30;99.90;;;;;;5038742;28;20201;-57
2020/12/29 06:17:31;;;;;;;37.03;24.90;;;2.20;99.90;;;;;;5049298;28;20712;-59
2020/12/29 06:20:04;;;;;;;29.90;20.87;;;2.20;99.90;;;;;;5039833;28;20185;-59
2020/12/29 06:22:31;;;;;;;31.03;21.13;;;2.20;99.90;;;;;;5046227;28;20198;-58
2020/12/29 06:24:57;;;;;;;32.13;22.47;;;2.10;99.90;;;;;;5040869;28;20558;-58
2020/12/29 06:27:30;;;;;;;35.90;22.80;;;2.00;99.90;;;;;;5047750;28;20189;-59
2020/12/29 06:29:57;;;;;;;33.87;22.17;;;2.10;99.90;;;;;;5039826;28;20669;-61
2020/12/29 06:32:25;;;;;;;31.10;19.93;;;2.10;99.90;;;;;;5047994;28;20182;-59
2020/12/29 06:34:50;;;;;;;34.53;21.73;;;2.10;99.90;;;;;;5041027;28;20576;-59
2020/12/29 06:37:44;;;;;;;33.97;21.70;;;2.10;99.90;;;;;;5048441;28;20185;-59
2020/12/29 06:40:12;;;;;;;31.63;19.80;;;2.00;99.90;;;;;;5045670;28;20197;-59
2020/12/29 06:42:42;;;;;;;36.10;22.43;;;2.10;99.90;;;;;;5041661;28;20279;-58
2020/12/29 06:45:09;;;;;;;37.93;22.77;;;2.10;99.90;;;;;;5039797;28;20201;-59
2020/12/29 06:47:45;;;;;;;35.00;23.30;;;2.10;99.90;;;;;;5050094;28;20563;-59
2020/12/29 06:50:31;;;;;;;31.67;21.90;;;2.10;99.90;;;;;;5042847;28;20192;-59
2020/12/29 06:53:04;;;;;;;38.40;24.10;;;2.10;99.90;;;;;;5053688;28;20186;-60
2020/12/29 06:55:43;;;;;;;33.10;19.83;;;2.20;99.90;;;;;;5043961;28;20221;-60
2020/12/29 06:58:09;;;;;;;32.83;21.13;;;2.20;99.90;;;;;;5046474;28;20177;-60
2020/12/29 07:00:35;;;;;;;35.67;23.40;;;2.10;99.90;;;;;;5054279;28;20296;-60
2020/12/29 07:03:02;;;;;;;38.87;24.30;;;2.10;99.90;;;;;;5050768;28;20187;-60
2020/12/29 07:05:29;;;;;;;35.97;24.17;;;2.10;99.90;;;;;;5038513;28;20198;-61
2020/12/29 07:07:59;;;;;;;39.70;26.13;;;2.20;99.90;;;;;;5046637;28;20185;-60
2020/12/29 07:10:38;;;;;;;37.60;23.33;;;2.20;99.90;;;;;;5042220;28;20276;-59
2020/12/29 07:13:06;;;;;;;37.77;24.33;;;2.20;99.90;;;;;;5038190;28;20217;-60
2020/12/29 07:15:44;;;;;;;37.47;22.53;;;2.20;99.90;;;;;;5048038;28;20259;-59
2020/12/29 07:18:10;;;;;;;34.37;23.27;;;2.10;99.90;;;;;;5048886;28;20193;-60
2020/12/29 07:20:36;;;;;;;34.30;23.40;;;2.20;99.90;;;;;;5036338;28;20205;-60
2020/12/29 07:23:04;;;;;;;38.27;24.63;;;2.10;99.90;;;;;;5043698;28;20189;-58
2020/12/29 07:25:31;;;;;;;37.50;23.80;;;2.10;99.90;;;;;;5041609;28;20197;-59
2020/12/29 07:28:00;;;;;;;36.90;23.53;;;2.20;99.90;;;;;;5046939;28;20178;-60
2020/12/29 07:30:30;;;;;;;35.00;23.53;;;2.20;99.90;;;;;;5042134;28;20186;-59
2020/12/29 07:33:03;;;;;;;35.87;23.80;;;2.20;99.90;;;;;;5038259;28;20561;-61
2020/12/29 07:35:32;;;;;;;33.17;21.20;;;2.10;99.90;;;;;;5038375;28;20290;-58
2020/12/29 07:38:01;;;;;;;40.63;26.67;;;2.10;99.90;;;;;;5050823;28;20637;-66
2020/12/29 07:40:26;;;;;;;37.13;23.17;;;2.10;99.90;;;;;;5041542;28;20217;-67
2020/12/29 07:42:53;;;;;;;32.50;21.90;;;2.10;99.90;;;;;;5049730;28;20535;-67
2020/12/29 07:45:18;;;;;;;35.30;22.57;;;2.10;99.90;;;;;;5049334;28;20202;-67
2020/12/29 07:47:44;;;;;;;35.20;23.80;;;2.10;99.90;;;;;;5041279;28;20664;-67
2020/12/29 07:50:09;;;;;;;36.30;23.77;;;2.10;99.90;;;;;;5050680;28;20181;-66
2020/12/29 07:52:35;;;;;;;33.50;22.13;;;2.10;99.90;;;;;;5049506;28;20646;-67
2020/12/29 07:55:15;;;;;;;34.37;22.23;;;2.20;99.90;;;;;;5049350;28;20240;-67
2020/12/29 07:57:42;;;;;;;33.57;20.90;;;2.20;99.90;;;;;;5051457;28;20186;-66
2020/12/29 08:00:15;;;;;;;32.20;20.23;;;2.30;99.90;;;;;;5048575;28;20646;-66
2020/12/29 08:02:49;;;;;;;28.93;20.90;;;2.30;99.90;;;;;;5048524;28;20170;-67
2020/12/29 08:05:15;;;;;;;33.50;19.87;;;2.30;99.90;;;;;;5039828;28;20197;-67
2020/12/29 08:07:40;;;;;;;32.97;20.87;;;2.30;99.90;;;;;;5046719;28;20948;-66
2020/12/29 08:10:06;;;;;;;32.00;19.40;;;2.20;99.90;;;;;;5045891;28;20178;-67
2020/12/29 08:12:31;;;;;;;31.97;20.10;;;2.20;99.90;;;;;;5042395;28;20262;-68
2020/12/29 08:14:57;;;;;;;35.07;21.30;;;2.30;99.90;;;;;;5047746;28;20201;-69
2020/12/29 08:17:22;;;;;;;32.67;21.07;;;2.30;99.90;;;;;;5047102;28;20614;-68
2020/12/29 08:20:00;;;;;;;30.97;20.53;;;2.40;99.90;;;;;;5034813;28;20645;-69
2020/12/29 08:22:27;;;;;;;35.27;20.93;;;2.40;99.90;;;;;;5059028;28;20232;-69
2020/12/29 08:24:53;;;;;;;30.70;20.00;;;2.40;99.90;;;;;;5055521;28;20200;-69
2020/12/29 08:27:19;;;;;;;36.53;23.40;;;2.40;99.90;;;;;;5060731;28;20658;-69
2020/12/29 08:29:45;;;;;;;32.57;19.83;;;2.40;99.90;;;;;;5052323;28;20177;-69
2020/12/29 08:32:12;;;;;;;33.77;20.97;;;2.40;99.90;;;;;;5051904;28;20208;-69
2020/12/29 08:34:39;;;;;;;32.13;20.57;;;2.40;99.90;;;;;;5051883;28;20201;-68
2020/12/29 08:37:06;;;;;;;35.37;20.83;;;2.30;99.90;;;;;;5051677;28;20190;-71
2020/12/29 08:39:50;;;;;;;35.07;22.07;;;2.40;99.90;;;;;;5052571;28;20185;-70
2020/12/29 08:42:18;;;;;;;31.23;20.07;;;2.40;99.90;;;;;;5041532;28;20215;-69
2020/12/29 08:44:44;;;;;;;33.40;19.60;;;2.40;99.90;;;;;;5053920;28;20209;-69
2020/12/29 08:47:12;;;;;;;32.00;18.83;;;2.40;99.90;;;;;;5054190;28;20180;-70
2020/12/29 08:49:38;;;;;;;36.23;22.27;;;2.30;99.90;;;;;;5053390;28;20721;-70
2020/12/29 08:52:04;;;;;;;30.47;19.17;;;2.40;99.90;;;;;;5052772;28;20224;-70
2020/12/29 08:54:35;;;;;;;35.13;22.43;;;2.40;99.90;;;;;;5035832;28;20430;-69
2020/12/29 08:57:02;;;;;;;34.10;21.17;;;2.40;99.90;;;;;;5055288;28;20237;-69
2020/12/29 08:59:39;;;;;;;38.77;22.37;;;2.40;99.90;;;;;;5053947;28;20192;-69
2020/12/29 09:02:05;;;;;;;35.00;20.40;;;2.50;99.90;;;;;;5032532;28;20224;-69
2020/12/29 09:04:40;;;;;;;36.73;22.13;;;2.40;99.90;;;;;;5053225;28;20213;-69
2020/12/29 09:07:10;;;;;;;33.73;20.40;;;2.50;99.90;;;;;;5036358;28;20198;-69
2020/12/29 09:10:01;;;;;;;33.03;22.07;;;2.40;99.90;;;;;;5053024;28;20235;-69
2020/12/29 09:12:31;;;;;;;34.27;21.37;;;2.40;99.90;;;;;;5052251;28;20181;-69
2020/12/29 09:15:08;;;;;;;33.10;21.30;;;2.50;99.90;;;;;;5053921;28;20197;-69
2020/12/29 09:17:42;;;;;;;39.03;22.93;;;2.50;99.90;;;;;;5034402;28;20186;-69
2020/12/29 09:20:19;;;;;;;34.03;21.37;;;2.50;99.90;;;;;;5053535;28;20231;-69
2020/12/29 09:23:10;;;;;;;35.73;23.80;;;2.60;99.90;;;;;;5052704;28;20181;-69
2020/12/29 09:25:43;;;;;;;38.03;23.60;;;2.60;99.90;;;;;;5054561;28;20280;-70
2020/12/29 09:28:13;;;;;;;42.20;22.53;;;2.70;99.90;;;;;;5048046;28;20543;-70
2020/12/29 09:31:07;;;;;;;41.90;25.30;;;2.70;99.90;;;;;;5055036;28;20200;-71
2020/12/29 09:33:34;;;;;;;39.93;23.57;;;2.70;99.90;;;;;;5031821;28;20313;-68
2020/12/29 09:36:04;;;;;;;43.53;22.80;;;2.70;99.90;;;;;;5031531;28;20179;-70
2020/12/29 09:38:33;;;;;;;49.77;23.90;;;2.80;99.90;;;;;;5040857;28;20603;-69
2020/12/29 09:41:01;;;;;;;43.93;24.03;;;2.80;99.90;;;;;;5049910;28;20201;-69
2020/12/29 09:43:27;;;;;;;46.60;24.27;;;2.80;99.90;;;;;;5049511;28;20217;-68
2020/12/29 09:45:53;;;;;;;42.40;21.90;;;2.90;99.90;;;;;;5050411;28;20185;-67
2020/12/29 09:48:19;;;;;;;39.27;22.13;;;3.00;99.90;;;;;;5031763;28;20181;-67
2020/12/29 09:50:45;;;;;;;43.40;23.83;;;2.90;99.90;;;;;;5049584;28;20653;-68
2020/12/29 09:53:10;;;;;;;41.83;23.00;;;3.00;99.90;;;;;;5038387;28;20416;-68
2020/12/29 09:55:40;;;;;;;42.10;21.80;;;3.10;99.90;;;;;;5050193;28;20604;-68
2020/12/29 09:58:05;;;;;;;38.87;18.53;;;3.10;99.90;;;;;;5050374;28;20256;-68
2020/12/29 10:00:31;;;;;;;48.43;24.67;;;3.10;99.90;;;;;;5049474;28;20289;-68
2020/12/29 10:02:58;;;;;;;48.73;24.77;;;3.10;99.90;;;;;;5050181;28;20200;-69
2020/12/29 10:05:24;;;;;;;46.43;24.97;;;3.20;99.90;;;;;;5047338;28;20197;-68
2020/12/29 10:07:50;;;;;;;46.07;24.27;;;3.20;99.90;;;;;;5049448;28;20188;-69
2020/12/29 10:10:16;;;;;;;43.73;22.73;;;3.20;99.90;;;;;;5050400;28;20196;-68
2020/12/29 10:12:41;;;;;;;37.30;20.90;;;3.20;99.90;;;;;;5047683;28;20178;-68
2020/12/29 10:15:08;;;;;;;42.93;21.57;;;3.10;99.90;;;;;;5049956;28;20186;-68
2020/12/29 10:17:33;;;;;;;35.67;18.90;;;3.10;99.90;;;;;;5051618;28;20239;-71
2020/12/29 10:19:59;;;;;;;51.43;26.80;;;3.10;99.90;;;;;;5047519;28;20261;-67
2020/12/29 10:22:27;;;;;;;45.67;23.73;;;3.10;99.90;;;;;;5045991;28;20213;-66
2020/12/29 10:24:53;;;;;;;45.47;22.03;;;3.10;99.90;;;;;;5055266;28;20205;-66
2020/12/29 10:27:18;;;;;;;48.13;25.80;;;3.10;99.90;;;;;;5055146;28;20170;-70
2020/12/29 10:29:44;;;;;;;41.20;23.67;;;3.20;99.90;;;;;;5054669;28;20181;-67
2020/12/29 10:32:09;;;;;;;43.40;22.17;;;3.20;99.90;;;;;;5054815;28;20196;-70
2020/12/29 10:34:35;;;;;;;41.33;22.87;;;3.30;99.90;;;;;;5055542;28;20210;-70
2020/12/29 10:37:00;;;;;;;45.47;22.40;;;3.30;99.90;;;;;;5048211;28;20237;-68
2020/12/29 10:39:26;;;;;;;44.40;23.90;;;3.40;99.90;;;;;;5052335;28;20232;-69
2020/12/29 10:41:51;;;;;;;42.57;22.83;;;3.50;99.90;;;;;;5034697;28;20729;-71
2020/12/29 10:44:17;;;;;;;41.37;22.47;;;3.50;99.90;;;;;;5050716;28;20268;-74
2020/12/29 10:46:47;;;;;;;41.73;23.40;;;3.50;99.90;;;;;;5053204;28;20170;-74
2020/12/29 10:49:13;;;;;;;43.93;25.23;;;3.50;99.90;;;;;;5054090;28;20165;-74
2020/12/29 10:51:38;;;;;;;49.87;24.70;;;3.40;99.90;;;;;;5053337;28;20276;-74
2020/12/29 10:54:04;;;;;;;39.33;23.13;;;3.40;99.90;;;;;;5049715;28;20672;-73
2020/12/29 10:56:29;;;;;;;40.37;24.03;;;3.40;99.90;;;;;;5053025;28;20190;-73
2020/12/29 10:58:54;;;;;;;39.40;23.07;;;3.50;99.90;;;;;;5050095;28;20273;-73
2020/12/29 11:01:22;;;;;;;44.97;25.30;;;3.30;99.90;;;;;;5034906;28;20587;-73
2020/12/29 11:03:49;;;;;;;37.77;21.70;;;3.30;99.90;;;;;;5052067;28;20208;-72
2020/12/29 11:06:17;;;;;;;43.17;24.97;;;3.30;99.90;;;;;;5052882;28;20182;-71
2020/12/29 11:08:43;;;;;;;38.47;22.97;;;3.20;99.90;;;;;;5052814;28;20319;-71
2020/12/29 11:11:08;;;;;;;42.83;22.80;;;3.30;99.90;;;;;;5053028;28;20248;-71
2020/12/29 11:13:34;;;;;;;43.43;23.63;;;3.20;99.90;;;;;;5053038;28;20225;-70
2020/12/29 11:16:00;;;;;;;37.80;22.83;;;3.30;99.90;;;;;;5053601;28;20261;-71
2020/12/29 11:18:25;;;;;;;40.10;24.07;;;3.50;99.90;;;;;;5054010;28;20170;-70
2020/12/29 11:20:52;;;;;;;29.37;18.83;;;3.40;99.90;;;;;;5052464;28;20229;-72
2020/12/29 11:23:18;;;;;;;38.07;22.90;;;3.40;99.90;;;;;;5053689;28;20668;-71
2020/12/29 11:25:43;;;;;;;39.83;24.03;;;3.50;99.90;;;;;;5052316;28;20261;-70
2020/12/29 11:28:09;;;;;;;35.50;20.83;;;3.50;99.90;;;;;;5052768;28;20692;-70
2020/12/29 11:30:34;;;;;;;38.37;23.10;;;3.40;99.90;;;;;;5052924;28;20170;-71
2020/12/29 11:33:00;;;;;;;33.17;18.97;;;3.40;99.90;;;;;;5053657;28;20260;-70
2020/12/29 11:35:25;;;;;;;39.97;23.60;;;3.40;99.90;;;;;;5052139;28;20202;-70
2020/12/29 11:37:51;;;;;;;40.63;22.23;;;3.30;99.90;;;;;;5053449;28;20673;-70
2020/12/29 11:40:16;;;;;;;39.90;24.37;;;3.30;99.90;;;;;;5052666;28;20177;-70
2020/12/29 11:42:42;;;;;;;22.90;13.80;;;3.30;99.90;;;;;;5052768;28;20534;-70
2020/12/29 11:45:07;;;;;;;43.13;25.37;;;3.30;99.90;;;;;;5053567;28;20197;-70
2020/12/29 11:47:33;;;;;;;45.40;24.07;;;3.30;99.90;;;;;;5018172;28;20357;-70
